world map with SUSO marked

SUSO - Airport

This information may not be accurate or current and is not valid for navigation or flight planning. No warranty of fitness for any purpose is made or implied.

flag of Saltoflag of Uruguay

Donate via PayPal

Additional information is available on the NEW Great Circle Mapper

Location
City:  Salto, Salto, Uruguay
Name:Nueva Hespérides International Airport
ICAO / IATA:SUSO / STY

Details
Type:Airport (Aerodrome, Airfield)
Use:Public/Civil
Latitude:31°26'19"S (-31.438480)
Longitude:57°59'07"W (-57.985293)
Datum:WGS 1984
Elevation:187 ft (57 m)
Runways:2
Longest:5210 × 148 ft (1588 × 45 m)

Time
Timezone:UTC+31:08 (DST+33:08)
Local Time:

Weather
METAR:SUSO  041400Z 15009KT 9999 FEW020 23/15 Q1022
TAF:SUSO  041145Z 0412/0512 10008KT CAVOK TX27/0418Z TN15/0509Z

Related Locations
Nearby:
Farthest:PVG: 12432 mi / 20007 km
Shanghai [Pudong Intl], 31, CN

Find:

   beyond  
but within

Other Information
Maps:
Sources:

  


 


Great Circle Mapper   Great Circle Mapper
Great Circle Mapper FAQ   Great Circle Mapper FAQ
  Karl's Home Page
KLS˛   KLS˛ Home
   GC on Facebook
Airlines of the World   Airlines of the World
Donate via PayPal


Copyright © 2004-2019, Karl L. Swartz. All rights reserved.
All trademarks mentioned herein belong to their respective owners.

Please see credits for attribution and copyright information.

Karl Swartz <karl@kls2.com>
  Powered by FreeBSD
Valid HTML 4.01!
Labeled with ICRA
hCard Microformat
Geo Microformat